sensor_id;sensor_type;location;lat;lon;timestamp;temperature;humidity
2465;DHT22;1244;54.326;10.074;2023-02-01T00:01:10;3.70;99.90
2465;DHT22;1244;54.326;10.074;2023-02-01T00:03:35;3.80;99.90
2465;DHT22;1244;54.326;10.074;2023-02-01T00:06:01;3.80;99.90
2465;DHT22;1244;54.326;10.074;2023-02-01T00:08:27;3.90;99.90
2465;DHT22;1244;54.326;10.074;2023-02-01T00:11:05;3.90;99.90
2465;DHT22;1244;54.326;10.074;2023-02-01T00:13:32;3.90;99.90
2465;DHT22;1244;54.326;10.074;2023-02-01T00:16:06;3.90;99.90
2465;DHT22;1244;54.326;10.074;2023-02-01T00:18:33;3.90;99.90
2465;DHT22;1244;54.326;10.074;2023-02-01T00:20:59;3.90;99.90
2465;DHT22;1244;54.326;10.074;2023-02-01T00:23:24;3.90;99.90
2465;DHT22;1244;54.326;10.074;2023-02-01T00:25:50;4.00;99.90
2465;DHT22;1244;54.326;10.074;2023-02-01T00:28:15;4.00;99.90
2465;DHT22;1244;54.326;10.074;2023-02-01T00:30:41;4.00;99.90
2465;DHT22;1244;54.326;10.074;2023-02-01T00:33:06;4.00;99.90
2465;DHT22;1244;54.326;10.074;2023-02-01T00:35:34;4.00;99.90
2465;DHT22;1244;54.326;10.074;2023-02-01T00:38:00;4.10;99.90
2465;DHT22;1244;54.326;10.074;2023-02-01T00:40:26;4.10;99.90
2465;DHT22;1244;54.326;10.074;2023-02-01T00:42:51;4.20;99.90
2465;DHT22;1244;54.326;10.074;2023-02-01T00:45:17;4.30;99.90
2465;DHT22;1244;54.326;10.074;2023-02-01T00:47:42;4.40;99.90
2465;DHT22;1244;54.326;10.074;2023-02-01T00:50:08;4.40;99.90
2465;DHT22;1244;54.326;10.074;2023-02-01T00:52:34;4.50;99.90
2465;DHT22;1244;54.326;10.074;2023-02-01T00:55:00;4.50;99.90
2465;DHT22;1244;54.326;10.074;2023-02-01T00:57:25;4.50;99.90
2465;DHT22;1244;54.326;10.074;2023-02-01T00:59:51;4.60;99.90
2465;DHT22;1244;54.326;10.074;2023-02-01T01:02:16;4.50;99.90
2465;DHT22;1244;54.326;10.074;2023-02-01T01:04:41;4.50;99.90
2465;DHT22;1244;54.326;10.074;2023-02-01T01:07:07;4.60;99.90
2465;DHT22;1244;54.326;10.074;2023-02-01T01:09:32;4.70;99.90
2465;DHT22;1244;54.326;10.074;2023-02-01T01:11:58;4.60;99.90
2465;DHT22;1244;54.326;10.074;2023-02-01T01:14:28;4.70;99.90
2465;DHT22;1244;54.326;10.074;2023-02-01T01:16:53;4.70;99.90
2465;DHT22;1244;54.326;10.074;2023-02-01T01:19:19;4.70;99.90
2465;DHT22;1244;54.326;10.074;2023-02-01T01:21:44;4.60;99.90
2465;DHT22;1244;54.326;10.074;2023-02-01T01:24:10;4.60;99.90
2465;DHT22;1244;54.326;10.074;2023-02-01T01:26:36;4.60;99.90
2465;DHT22;1244;54.326;10.074;2023-02-01T01:29:01;4.70;99.90
2465;DHT22;1244;54.326;10.074;2023-02-01T01:31:28;4.70;99.90
2465;DHT22;1244;54.326;10.074;2023-02-01T01:33:56;4.60;99.90
2465;DHT22;1244;54.326;10.074;2023-02-01T01:36:22;4.60;99.90
2465;DHT22;1244;54.326;10.074;2023-02-01T01:38:48;4.60;99.90
2465;DHT22;1244;54.326;10.074;2023-02-01T01:41:20;4.70;99.90
2465;DHT22;1244;54.326;10.074;2023-02-01T01:43:56;4.80;99.90
2465;DHT22;1244;54.326;10.074;2023-02-01T01:46:27;4.70;99.90
2465;DHT22;1244;54.326;10.074;2023-02-01T01:49:01;4.70;99.90
2465;DHT22;1244;54.326;10.074;2023-02-01T01:51:29;4.80;99.90
2465;DHT22;1244;54.326;10.074;2023-02-01T01:54:01;4.80;99.90
2465;DHT22;1244;54.326;10.074;2023-02-01T01:56:29;4.80;99.90
2465;DHT22;1244;54.326;10.074;2023-02-01T01:58:56;4.80;99.90
2465;DHT22;1244;54.326;10.074;2023-02-01T02:01:22;4.80;99.90
2465;DHT22;1244;54.326;10.074;2023-02-01T02:03:47;4.80;99.90
2465;DHT22;1244;54.326;10.074;2023-02-01T02:06:34;4.80;99.90
2465;DHT22;1244;54.326;10.074;2023-02-01T02:09:03;4.70;99.90
2465;DHT22;1244;54.326;10.074;2023-02-01T02:11:29;4.70;99.90
2465;DHT22;1244;54.326;10.074;2023-02-01T02:13:55;4.70;99.90
2465;DHT22;1244;54.326;10.074;2023-02-01T02:22:55;4.70;99.90
2465;DHT22;1244;54.326;10.074;2023-02-01T02:28:55;4.70;99.90
2465;DHT22;1244;54.326;10.074;2023-02-01T02:31:43;4.70;99.90
2465;DHT22;1244;54.326;10.074;2023-02-01T02:39:54;4.70;99.90
2465;DHT22;1244;54.326;10.074;2023-02-01T02:45:33;4.70;99.90
2465;DHT22;1244;54.326;10.074;2023-02-01T02:51:15;4.80;99.90
2465;DHT22;1244;54.326;10.074;2023-02-01T02:54:05;4.80;99.90
2465;DHT22;1244;54.326;10.074;2023-02-01T02:56:53;4.80;99.90
2465;DHT22;1244;54.326;10.074;2023-02-01T02:59:40;4.80;99.90
2465;DHT22;1244;54.326;10.074;2023-02-01T03:02:26;4.80;99.90
2465;DHT22;1244;54.326;10.074;2023-02-01T03:05:11;4.80;99.90
2465;DHT22;1244;54.326;10.074;2023-02-01T03:08:02;4.80;99.90
2465;DHT22;1244;54.326;10.074;2023-02-01T03:13:22;4.90;99.90
2465;DHT22;1244;54.326;10.074;2023-02-01T03:21:25;4.80;99.90
2465;DHT22;1244;54.326;10.074;2023-02-01T03:23:53;4.80;99.90
2465;DHT22;1244;54.326;10.074;2023-02-01T03:26:22;4.90;99.90
2465;DHT22;1244;54.326;10.074;2023-02-01T03:28:54;4.90;99.90
2465;DHT22;1244;54.326;10.074;2023-02-01T03:31:22;4.80;99.90
2465;DHT22;1244;54.326;10.074;2023-02-01T03:33:47;4.80;99.90
2465;DHT22;1244;54.326;10.074;2023-02-01T03:36:35;4.70;99.90
2465;DHT22;1244;54.326;10.074;2023-02-01T03:39:14;4.80;99.90
2465;DHT22;1244;54.326;10.074;2023-02-01T03:41:51;4.80;99.90
2465;DHT22;1244;54.326;10.074;2023-02-01T03:44:34;4.90;99.90
2465;DHT22;1244;54.326;10.074;2023-02-01T03:47:06;4.90;99.90
2465;DHT22;1244;54.326;10.074;2023-02-01T03:49:37;4.80;99.90
2465;DHT22;1244;54.326;10.074;2023-02-01T03:52:06;4.70;99.90
2465;DHT22;1244;54.326;10.074;2023-02-01T03:54:34;4.70;99.90
2465;DHT22;1244;54.326;10.074;2023-02-01T03:57:05;4.60;99.90
2465;DHT22;1244;54.326;10.074;2023-02-01T03:59:32;4.50;99.90
2465;DHT22;1244;54.326;10.074;2023-02-01T04:01:57;4.40;99.90
2465;DHT22;1244;54.326;10.074;2023-02-01T04:04:23;4.30;99.90
2465;DHT22;1244;54.326;10.074;2023-02-01T04:06:49;4.20;99.90
2465;DHT22;1244;54.326;10.074;2023-02-01T04:09:16;4.20;99.90
2465;DHT22;1244;54.326;10.074;2023-02-01T04:11:42;4.10;99.90
2465;DHT22;1244;54.326;10.074;2023-02-01T04:14:07;4.00;99.90
2465;DHT22;1244;54.326;10.074;2023-02-01T04:16:33;4.10;99.90
2465;DHT22;1244;54.326;10.074;2023-02-01T04:18:59;4.00;99.90
2465;DHT22;1244;54.326;10.074;2023-02-01T04:21:25;4.00;99.90
2465;DHT22;1244;54.326;10.074;2023-02-01T04:23:52;4.00;99.90
2465;DHT22;1244;54.326;10.074;2023-02-01T04:26:17;4.00;99.90
2465;DHT22;1244;54.326;10.074;2023-02-01T04:28:44;3.90;99.90
2465;DHT22;1244;54.326;10.074;2023-02-01T04:31:09;3.90;99.90
2465;DHT22;1244;54.326;10.074;2023-02-01T04:33:35;3.80;99.90
2465;DHT22;1244;54.326;10.074;2023-02-01T04:36:00;3.80;99.90
2465;DHT22;1244;54.326;10.074;2023-02-01T04:38:26;3.90;99.90
2465;DHT22;1244;54.326;10.074;2023-02-01T04:40:54;3.90;99.90
2465;DHT22;1244;54.326;10.074;2023-02-01T04:43:20;3.90;99.90
2465;DHT22;1244;54.326;10.074;2023-02-01T04:45:49;3.80;99.90
2465;DHT22;1244;54.326;10.074;2023-02-01T04:48:15;3.80;99.90
2465;DHT22;1244;54.326;10.074;2023-02-01T04:50:42;3.80;99.90
2465;DHT22;1244;54.326;10.074;2023-02-01T04:53:08;3.80;99.90
2465;DHT22;1244;54.326;10.074;2023-02-01T04:55:33;3.80;99.90
2465;DHT22;1244;54.326;10.074;2023-02-01T04:57:59;3.80;99.90
2465;DHT22;1244;54.326;10.074;2023-02-01T05:00:25;3.80;99.90
2465;DHT22;1244;54.326;10.074;2023-02-01T05:02:50;3.80;99.90
2465;DHT22;1244;54.326;10.074;2023-02-01T05:05:16;3.80;99.90
2465;DHT22;1244;54.326;10.074;2023-02-01T05:07:41;3.70;99.90
2465;DHT22;1244;54.326;10.074;2023-02-01T05:10:07;3.80;99.90
2465;DHT22;1244;54.326;10.074;2023-02-01T05:12:33;3.80;99.90
2465;DHT22;1244;54.326;10.074;2023-02-01T05:15:17;3.80;99.90
2465;DHT22;1244;54.326;10.074;2023-02-01T05:17:42;3.80;99.90
2465;DHT22;1244;54.326;10.074;2023-02-01T05:20:09;3.80;99.90
2465;DHT22;1244;54.326;10.074;2023-02-01T05:22:34;3.80;99.90
2465;DHT22;1244;54.326;10.074;2023-02-01T05:25:00;3.80;99.90
2465;DHT22;1244;54.326;10.074;2023-02-01T05:27:25;3.80;99.90
2465;DHT22;1244;54.326;10.074;2023-02-01T05:29:51;3.90;99.90
2465;DHT22;1244;54.326;10.074;2023-02-01T05:32:16;3.90;99.90
2465;DHT22;1244;54.326;10.074;2023-02-01T05:34:41;3.90;99.90
2465;DHT22;1244;54.326;10.074;2023-02-01T05:37:07;4.00;99.90
2465;DHT22;1244;54.326;10.074;2023-02-01T05:39:33;4.00;99.90
2465;DHT22;1244;54.326;10.074;2023-02-01T05:41:58;4.10;99.90
2465;DHT22;1244;54.326;10.074;2023-02-01T05:44:24;4.10;99.90
2465;DHT22;1244;54.326;10.074;2023-02-01T05:46:49;4.10;99.90
2465;DHT22;1244;54.326;10.074;2023-02-01T05:49:17;4.10;99.90
2465;DHT22;1244;54.326;10.074;2023-02-01T05:51:43;4.10;99.90
2465;DHT22;1244;54.326;10.074;2023-02-01T05:54:08;4.10;99.90
2465;DHT22;1244;54.326;10.074;2023-02-01T05:56:34;4.10;99.90
2465;DHT22;1244;54.326;10.074;2023-02-01T05:59:00;4.10;99.90
2465;DHT22;1244;54.326;10.074;2023-02-01T06:01:25;4.10;99.90
2465;DHT22;1244;54.326;10.074;2023-02-01T06:03:51;4.00;99.90
2465;DHT22;1244;54.326;10.074;2023-02-01T06:06:16;4.00;99.90
2465;DHT22;1244;54.326;10.074;2023-02-01T06:08:42;4.00;99.90
2465;DHT22;1244;54.326;10.074;2023-02-01T06:11:07;4.10;99.90
2465;DHT22;1244;54.326;10.074;2023-02-01T06:13:33;4.00;99.90
2465;DHT22;1244;54.326;10.074;2023-02-01T06:15:59;4.00;99.90
2465;DHT22;1244;54.326;10.074;2023-02-01T06:18:24;4.00;99.90
2465;DHT22;1244;54.326;10.074;2023-02-01T06:20:57;4.00;99.90
2465;DHT22;1244;54.326;10.074;2023-02-01T06:23:23;4.00;99.90
2465;DHT22;1244;54.326;10.074;2023-02-01T06:25:50;4.00;99.90
2465;DHT22;1244;54.326;10.074;2023-02-01T06:28:16;3.90;99.90
2465;DHT22;1244;54.326;10.074;2023-02-01T06:30:41;3.90;99.90
2465;DHT22;1244;54.326;10.074;2023-02-01T06:33:14;3.90;99.90
2465;DHT22;1244;54.326;10.074;2023-02-01T06:35:41;3.80;99.90
2465;DHT22;1244;54.326;10.074;2023-02-01T06:38:07;3.80;99.90
2465;DHT22;1244;54.326;10.074;2023-02-01T06:40:33;3.80;99.90
2465;DHT22;1244;54.326;10.074;2023-02-01T06:42:58;3.80;99.90
2465;DHT22;1244;54.326;10.074;2023-02-01T06:45:24;3.80;99.90
2465;DHT22;1244;54.326;10.074;2023-02-01T06:47:49;3.80;99.90
2465;DHT22;1244;54.326;10.074;2023-02-01T06:50:16;3.80;99.90
2465;DHT22;1244;54.326;10.074;2023-02-01T06:52:41;3.80;99.90
2465;DHT22;1244;54.326;10.074;2023-02-01T06:55:07;3.80;99.90
2465;DHT22;1244;54.326;10.074;2023-02-01T06:57:34;3.80;99.90
2465;DHT22;1244;54.326;10.074;2023-02-01T07:00:02;3.90;99.90
2465;DHT22;1244;54.326;10.074;2023-02-01T07:02:28;3.90;99.90
2465;DHT22;1244;54.326;10.074;2023-02-01T07:04:53;3.90;99.90
2465;DHT22;1244;54.326;10.074;2023-02-01T07:07:19;4.00;99.90
2465;DHT22;1244;54.326;10.074;2023-02-01T07:09:45;4.00;99.90
2465;DHT22;1244;54.326;10.074;2023-02-01T07:12:11;4.00;99.90
2465;DHT22;1244;54.326;10.074;2023-02-01T07:14:36;4.00;99.90
2465;DHT22;1244;54.326;10.074;2023-02-01T07:17:02;4.00;99.90
2465;DHT22;1244;54.326;10.074;2023-02-01T07:19:27;4.00;99.90
2465;DHT22;1244;54.326;10.074;2023-02-01T07:21:53;4.00;99.90
2465;DHT22;1244;54.326;10.074;2023-02-01T07:24:18;4.00;99.90
2465;DHT22;1244;54.326;10.074;2023-02-01T07:26:44;4.10;99.90
2465;DHT22;1244;54.326;10.074;2023-02-01T07:29:09;4.10;99.90
2465;DHT22;1244;54.326;10.074;2023-02-01T07:31:35;4.20;99.90
2465;DHT22;1244;54.326;10.074;2023-02-01T07:34:00;4.20;99.90
2465;DHT22;1244;54.326;10.074;2023-02-01T07:36:27;4.30;99.90
2465;DHT22;1244;54.326;10.074;2023-02-01T07:38:53;4.30;99.90
2465;DHT22;1244;54.326;10.074;2023-02-01T07:41:18;4.30;99.90
2465;DHT22;1244;54.326;10.074;2023-02-01T07:43:44;4.30;99.90
2465;DHT22;1244;54.326;10.074;2023-02-01T07:46:10;4.30;99.90
2465;DHT22;1244;54.326;10.074;2023-02-01T07:48:36;4.30;99.90
2465;DHT22;1244;54.326;10.074;2023-02-01T07:51:04;4.30;99.90
2465;DHT22;1244;54.326;10.074;2023-02-01T07:53:31;4.30;99.90
2465;DHT22;1244;54.326;10.074;2023-02-01T07:55:57;4.40;99.90
2465;DHT22;1244;54.326;10.074;2023-02-01T07:58:23;4.50;99.90
2465;DHT22;1244;54.326;10.074;2023-02-01T08:00:49;4.50;99.90
2465;DHT22;1244;54.326;10.074;2023-02-01T08:03:33;4.50;99.90
2465;DHT22;1244;54.326;10.074;2023-02-01T08:05:58;4.60;99.90
2465;DHT22;1244;54.326;10.074;2023-02-01T08:08:24;4.60;99.90
2465;DHT22;1244;54.326;10.074;2023-02-01T08:10:49;4.60;99.90
2465;DHT22;1244;54.326;10.074;2023-02-01T08:13:16;4.70;99.90
2465;DHT22;1244;54.326;10.074;2023-02-01T08:15:41;4.60;99.90
2465;DHT22;1244;54.326;10.074;2023-02-01T08:18:07;4.60;99.90
2465;DHT22;1244;54.326;10.074;2023-02-01T08:20:33;4.50;99.90
2465;DHT22;1244;54.326;10.074;2023-02-01T08:23:01;4.50;99.90
2465;DHT22;1244;54.326;10.074;2023-02-01T08:25:27;4.50;99.90
2465;DHT22;1244;54.326;10.074;2023-02-01T08:27:53;4.60;99.90
2465;DHT22;1244;54.326;10.074;2023-02-01T08:30:19;4.60;99.90
2465;DHT22;1244;54.326;10.074;2023-02-01T08:32:45;4.70;99.90
2465;DHT22;1244;54.326;10.074;2023-02-01T08:35:11;4.80;99.90
2465;DHT22;1244;54.326;10.074;2023-02-01T08:37:36;4.90;99.90
2465;DHT22;1244;54.326;10.074;2023-02-01T08:40:03;4.90;99.90
2465;DHT22;1244;54.326;10.074;2023-02-01T08:42:29;4.90;99.90
2465;DHT22;1244;54.326;10.074;2023-02-01T08:45:13;5.00;99.90
2465;DHT22;1244;54.326;10.074;2023-02-01T08:47:39;4.90;99.90
2465;DHT22;1244;54.326;10.074;2023-02-01T08:50:05;4.80;99.90
2465;DHT22;1244;54.326;10.074;2023-02-01T08:52:30;4.90;99.90
2465;DHT22;1244;54.326;10.074;2023-02-01T08:54:56;4.90;99.90
2465;DHT22;1244;54.326;10.074;2023-02-01T08:57:21;4.90;99.90
2465;DHT22;1244;54.326;10.074;2023-02-01T08:59:47;5.20;99.90
2465;DHT22;1244;54.326;10.074;2023-02-01T09:02:13;5.30;99.90
2465;DHT22;1244;54.326;10.074;2023-02-01T09:04:40;5.50;99.90
2465;DHT22;1244;54.326;10.074;2023-02-01T09:07:07;5.50;99.90
2465;DHT22;1244;54.326;10.074;2023-02-01T09:09:33;5.50;99.90
2465;DHT22;1244;54.326;10.074;2023-02-01T09:11:58;5.80;99.90
2465;DHT22;1244;54.326;10.074;2023-02-01T09:14:24;6.00;99.90
2465;DHT22;1244;54.326;10.074;2023-02-01T09:16:49;6.40;99.90
2465;DHT22;1244;54.326;10.074;2023-02-01T09:19:15;6.40;99.90
2465;DHT22;1244;54.326;10.074;2023-02-01T09:21:40;6.20;99.90
2465;DHT22;1244;54.326;10.074;2023-02-01T09:24:06;5.90;99.90
2465;DHT22;1244;54.326;10.074;2023-02-01T09:26:32;5.80;99.90
2465;DHT22;1244;54.326;10.074;2023-02-01T09:28:59;5.80;99.90
2465;DHT22;1244;54.326;10.074;2023-02-01T09:31:25;5.90;99.90
2465;DHT22;1244;54.326;10.074;2023-02-01T09:33:50;6.00;99.90
2465;DHT22;1244;54.326;10.074;2023-02-01T09:36:16;5.90;99.90
2465;DHT22;1244;54.326;10.074;2023-02-01T09:38:45;5.90;99.90
2465;DHT22;1244;54.326;10.074;2023-02-01T09:44:22;5.90;99.90
2465;DHT22;1244;54.326;10.074;2023-02-01T09:46:55;5.90;99.90
2465;DHT22;1244;54.326;10.074;2023-02-01T09:49:37;5.80;99.90
2465;DHT22;1244;54.326;10.074;2023-02-01T09:52:10;5.80;99.90
2465;DHT22;1244;54.326;10.074;2023-02-01T09:54:52;5.70;99.90
2465;DHT22;1244;54.326;10.074;2023-02-01T09:57:32;5.90;99.90
2465;DHT22;1244;54.326;10.074;2023-02-01T10:00:12;6.20;99.90
2465;DHT22;1244;54.326;10.074;2023-02-01T10:02:40;6.10;99.90
2465;DHT22;1244;54.326;10.074;2023-02-01T10:05:13;6.00;99.90
2465;DHT22;1244;54.326;10.074;2023-02-01T10:08:04;6.00;99.90
2465;DHT22;1244;54.326;10.074;2023-02-01T10:10:43;6.00;99.90
2465;DHT22;1244;54.326;10.074;2023-02-01T10:18:39;6.10;99.90
2465;DHT22;1244;54.326;10.074;2023-02-01T10:26:42;6.20;99.90
2465;DHT22;1244;54.326;10.074;2023-02-01T10:29:20;6.30;99.90
2465;DHT22;1244;54.326;10.074;2023-02-01T10:31:46;6.60;99.90
2465;DHT22;1244;54.326;10.074;2023-02-01T10:34:32;7.00;99.90
2465;DHT22;1244;54.326;10.074;2023-02-01T10:37:22;7.30;99.90
2465;DHT22;1244;54.326;10.074;2023-02-01T10:39:49;7.10;99.90
2465;DHT22;1244;54.326;10.074;2023-02-01T10:42:19;7.20;99.90
2465;DHT22;1244;54.326;10.074;2023-02-01T10:44:46;8.00;99.90
2465;DHT22;1244;54.326;10.074;2023-02-01T10:47:13;8.00;99.90
2465;DHT22;1244;54.326;10.074;2023-02-01T10:49:45;7.30;99.90
2465;DHT22;1244;54.326;10.074;2023-02-01T10:52:17;6.90;99.90
2465;DHT22;1244;54.326;10.074;2023-02-01T10:54:44;7.10;99.90
2465;DHT22;1244;54.326;10.074;2023-02-01T10:57:19;7.00;99.90
2465;DHT22;1244;54.326;10.074;2023-02-01T10:59:44;6.70;99.90
2465;DHT22;1244;54.326;10.074;2023-02-01T11:04:42;6.30;99.90
2465;DHT22;1244;54.326;10.074;2023-02-01T11:07:25;6.20;99.90
2465;DHT22;1244;54.326;10.074;2023-02-01T11:09:52;6.00;99.90
2465;DHT22;1244;54.326;10.074;2023-02-01T11:12:35;5.80;99.90
2465;DHT22;1244;54.326;10.074;2023-02-01T11:17:46;5.50;99.90
2465;DHT22;1244;54.326;10.074;2023-02-01T11:20:37;5.50;99.90
2465;DHT22;1244;54.326;10.074;2023-02-01T11:23:04;5.50;99.90
2465;DHT22;1244;54.326;10.074;2023-02-01T11:25:32;5.60;99.90
2465;DHT22;1244;54.326;10.074;2023-02-01T11:27:59;5.70;99.90
2465;DHT22;1244;54.326;10.074;2023-02-01T11:30:34;5.80;99.90
2465;DHT22;1244;54.326;10.074;2023-02-01T11:33:03;5.90;99.90
2465;DHT22;1244;54.326;10.074;2023-02-01T11:35:30;6.00;99.90
2465;DHT22;1244;54.326;10.074;2023-02-01T11:37:58;6.10;99.90
2465;DHT22;1244;54.326;10.074;2023-02-01T11:40:38;6.10;99.90
2465;DHT22;1244;54.326;10.074;2023-02-01T11:43:08;6.10;99.90
2465;DHT22;1244;54.326;10.074;2023-02-01T11:45:37;6.20;99.90
2465;DHT22;1244;54.326;10.074;2023-02-01T11:48:08;6.30;99.90
2465;DHT22;1244;54.326;10.074;2023-02-01T11:50:54;6.30;99.90
2465;DHT22;1244;54.326;10.074;2023-02-01T11:53:41;6.30;99.90
2465;DHT22;1244;54.326;10.074;2023-02-01T12:02:10;6.00;99.90
2465;DHT22;1244;54.326;10.074;2023-02-01T12:05:01;5.80;99.90
2465;DHT22;1244;54.326;10.074;2023-02-01T12:08:06;5.60;99.90
2465;DHT22;1244;54.326;10.074;2023-02-01T12:23:56;4.70;99.90
2465;DHT22;1244;54.326;10.074;2023-02-01T12:31:47;5.00;99.90
2465;DHT22;1244;54.326;10.074;2023-02-01T12:42:50;5.00;99.90
2465;DHT22;1244;54.326;10.074;2023-02-01T12:45:37;5.10;99.90
2465;DHT22;1244;54.326;10.074;2023-02-01T12:48:25;5.10;99.90
2465;DHT22;1244;54.326;10.074;2023-02-01T12:50:55;5.20;99.90
2465;DHT22;1244;54.326;10.074;2023-02-01T12:53:47;5.20;99.90
2465;DHT22;1244;54.326;10.074;2023-02-01T12:59:04;5.40;99.90
2465;DHT22;1244;54.326;10.074;2023-02-01T13:01:35;5.40;99.90
2465;DHT22;1244;54.326;10.074;2023-02-01T13:04:25;5.50;99.90
2465;DHT22;1244;54.326;10.074;2023-02-01T13:07:19;5.60;99.90
2465;DHT22;1244;54.326;10.074;2023-02-01T13:09:51;5.70;99.90
2465;DHT22;1244;54.326;10.074;2023-02-01T13:12:30;5.70;99.90
2465;DHT22;1244;54.326;10.074;2023-02-01T13:15:02;5.80;99.90
2465;DHT22;1244;54.326;10.074;2023-02-01T13:17:32;5.90;99.90
2465;DHT22;1244;54.326;10.074;2023-02-01T13:22:37;5.50;99.90
2465;DHT22;1244;54.326;10.074;2023-02-01T13:27:46;4.80;99.90
2465;DHT22;1244;54.326;10.074;2023-02-01T13:30:19;4.70;99.90
2465;DHT22;1244;54.326;10.074;2023-02-01T13:32:55;4.70;99.90
2465;DHT22;1244;54.326;10.074;2023-02-01T13:41:17;5.20;99.90
2465;DHT22;1244;54.326;10.074;2023-02-01T13:43:51;5.00;99.90
2465;DHT22;1244;54.326;10.074;2023-02-01T13:46:18;4.90;99.90
2465;DHT22;1244;54.326;10.074;2023-02-01T13:48:54;4.90;99.90
2465;DHT22;1244;54.326;10.074;2023-02-01T13:51:40;4.90;99.90
2465;DHT22;1244;54.326;10.074;2023-02-01T13:54:07;5.00;99.90
2465;DHT22;1244;54.326;10.074;2023-02-01T13:56:41;5.00;99.90
2465;DHT22;1244;54.326;10.074;2023-02-01T13:59:36;5.10;99.90
2465;DHT22;1244;54.326;10.074;2023-02-01T14:05:09;5.30;99.90
2465;DHT22;1244;54.326;10.074;2023-02-01T14:07:35;5.40;99.90
2465;DHT22;1244;54.326;10.074;2023-02-01T14:23:45;5.50;99.90
2465;DHT22;1244;54.326;10.074;2023-02-01T14:28:52;5.50;99.90
2465;DHT22;1244;54.326;10.074;2023-02-01T14:31:33;5.60;99.90
2465;DHT22;1244;54.326;10.074;2023-02-01T14:34:02;5.70;99.90
2465;DHT22;1244;54.326;10.074;2023-02-01T14:39:24;5.60;99.90
2465;DHT22;1244;54.326;10.074;2023-02-01T14:41:55;5.80;99.90
2465;DHT22;1244;54.326;10.074;2023-02-01T14:44:25;5.70;99.90
2465;DHT22;1244;54.326;10.074;2023-02-01T14:50:00;5.50;99.90
2465;DHT22;1244;54.326;10.074;2023-02-01T14:52:34;5.40;99.90
2465;DHT22;1244;54.326;10.074;2023-02-01T14:55:05;5.40;99.90
2465;DHT22;1244;54.326;10.074;2023-02-01T14:57:34;5.40;99.90
2465;DHT22;1244;54.326;10.074;2023-02-01T15:02:40;5.40;99.90
2465;DHT22;1244;54.326;10.074;2023-02-01T15:05:23;5.40;99.90
2465;DHT22;1244;54.326;10.074;2023-02-01T15:07:50;5.40;99.90
2465;DHT22;1244;54.326;10.074;2023-02-01T15:10:17;5.30;99.90
2465;DHT22;1244;54.326;10.074;2023-02-01T15:12:45;5.30;99.90
2465;DHT22;1244;54.326;10.074;2023-02-01T15:15:14;5.30;99.90
2465;DHT22;1244;54.326;10.074;2023-02-01T15:17:41;5.30;99.90
2465;DHT22;1244;54.326;10.074;2023-02-01T15:22:59;5.30;99.90
2465;DHT22;1244;54.326;10.074;2023-02-01T15:25:46;5.30;99.90
2465;DHT22;1244;54.326;10.074;2023-02-01T15:28:16;5.30;99.90
2465;DHT22;1244;54.326;10.074;2023-02-01T15:30:56;5.30;99.90
2465;DHT22;1244;54.326;10.074;2023-02-01T15:33:22;5.30;99.90
2465;DHT22;1244;54.326;10.074;2023-02-01T15:36:06;5.30;99.90
2465;DHT22;1244;54.326;10.074;2023-02-01T15:38:36;5.30;99.90
2465;DHT22;1244;54.326;10.074;2023-02-01T15:41:19;5.30;99.90
2465;DHT22;1244;54.326;10.074;2023-02-01T15:46:31;5.30;99.90
2465;DHT22;1244;54.326;10.074;2023-02-01T15:48:57;5.30;99.90
2465;DHT22;1244;54.326;10.074;2023-02-01T15:51:25;5.30;99.90
2465;DHT22;1244;54.326;10.074;2023-02-01T15:54:02;5.30;99.90
2465;DHT22;1244;54.326;10.074;2023-02-01T15:56:34;5.30;99.90
2465;DHT22;1244;54.326;10.074;2023-02-01T15:59:02;5.30;99.90
2465;DHT22;1244;54.326;10.074;2023-02-01T16:01:28;5.40;99.90
2465;DHT22;1244;54.326;10.074;2023-02-01T16:04:18;5.50;99.90
2465;DHT22;1244;54.326;10.074;2023-02-01T16:09:14;5.50;99.90
2465;DHT22;1244;54.326;10.074;2023-02-01T16:11:56;5.50;99.90
2465;DHT22;1244;54.326;10.074;2023-02-01T16:14:23;5.50;99.90
2465;DHT22;1244;54.326;10.074;2023-02-01T16:16:49;5.50;99.90
2465;DHT22;1244;54.326;10.074;2023-02-01T16:19:15;5.50;99.90
2465;DHT22;1244;54.326;10.074;2023-02-01T16:21:41;5.50;99.90
2465;DHT22;1244;54.326;10.074;2023-02-01T16:24:06;5.50;99.90
2465;DHT22;1244;54.326;10.074;2023-02-01T16:26:33;5.40;99.90
2465;DHT22;1244;54.326;10.074;2023-02-01T16:28:59;5.20;99.90
2465;DHT22;1244;54.326;10.074;2023-02-01T16:31:29;5.10;99.90
2465;DHT22;1244;54.326;10.074;2023-02-01T16:33:55;5.00;99.90
2465;DHT22;1244;54.326;10.074;2023-02-01T16:36:21;5.00;99.90
2465;DHT22;1244;54.326;10.074;2023-02-01T16:38:47;5.00;99.90
2465;DHT22;1244;54.326;10.074;2023-02-01T16:41:19;5.00;99.90
2465;DHT22;1244;54.326;10.074;2023-02-01T16:43:45;5.00;99.90
2465;DHT22;1244;54.326;10.074;2023-02-01T16:46:16;5.00;99.90
2465;DHT22;1244;54.326;10.074;2023-02-01T16:48:50;5.00;99.90
2465;DHT22;1244;54.326;10.074;2023-02-01T16:51:16;5.10;99.90
2465;DHT22;1244;54.326;10.074;2023-02-01T16:53:42;5.10;99.90
2465;DHT22;1244;54.326;10.074;2023-02-01T16:56:16;5.20;99.90
2465;DHT22;1244;54.326;10.074;2023-02-01T16:58:42;5.30;99.90
2465;DHT22;1244;54.326;10.074;2023-02-01T17:01:12;5.40;99.90
2465;DHT22;1244;54.326;10.074;2023-02-01T17:03:39;5.30;99.90
2465;DHT22;1244;54.326;10.074;2023-02-01T17:06:05;5.30;99.90
2465;DHT22;1244;54.326;10.074;2023-02-01T17:08:34;5.40;99.90
2465;DHT22;1244;54.326;10.074;2023-02-01T17:11:01;5.40;99.90
2465;DHT22;1244;54.326;10.074;2023-02-01T17:13:27;5.40;99.90
2465;DHT22;1244;54.326;10.074;2023-02-01T17:15:58;5.40;99.90
2465;DHT22;1244;54.326;10.074;2023-02-01T17:18:27;5.40;99.90
2465;DHT22;1244;54.326;10.074;2023-02-01T17:20:56;5.50;99.90
2465;DHT22;1244;54.326;10.074;2023-02-01T17:23:22;5.50;99.90
2465;DHT22;1244;54.326;10.074;2023-02-01T17:25:48;5.50;99.90
2465;DHT22;1244;54.326;10.074;2023-02-01T17:28:13;5.40;99.90
2465;DHT22;1244;54.326;10.074;2023-02-01T17:30:39;5.30;99.90
2465;DHT22;1244;54.326;10.074;2023-02-01T17:33:16;5.30;99.90
2465;DHT22;1244;54.326;10.074;2023-02-01T17:35:43;5.30;99.90
2465;DHT22;1244;54.326;10.074;2023-02-01T17:38:12;5.30;99.90
2465;DHT22;1244;54.326;10.074;2023-02-01T17:40:38;5.30;99.90
2465;DHT22;1244;54.326;10.074;2023-02-01T17:43:03;5.30;99.90
2465;DHT22;1244;54.326;10.074;2023-02-01T17:45:39;5.20;99.90
2465;DHT22;1244;54.326;10.074;2023-02-01T17:48:06;5.20;99.90
2465;DHT22;1244;54.326;10.074;2023-02-01T17:50:36;5.30;99.90
2465;DHT22;1244;54.326;10.074;2023-02-01T17:53:03;5.30;99.90
2465;DHT22;1244;54.326;10.074;2023-02-01T17:55:33;5.30;99.90
2465;DHT22;1244;54.326;10.074;2023-02-01T17:57:59;5.30;99.90
2465;DHT22;1244;54.326;10.074;2023-02-01T18:00:24;5.30;99.90
2465;DHT22;1244;54.326;10.074;2023-02-01T18:02:50;5.30;99.90
2465;DHT22;1244;54.326;10.074;2023-02-01T18:05:26;5.30;99.90
2465;DHT22;1244;54.326;10.074;2023-02-01T18:07:52;5.30;99.90
2465;DHT22;1244;54.326;10.074;2023-02-01T18:10:18;5.30;99.90
2465;DHT22;1244;54.326;10.074;2023-02-01T18:12:44;5.30;99.90
2465;DHT22;1244;54.326;10.074;2023-02-01T18:15:21;5.30;99.90
2465;DHT22;1244;54.326;10.074;2023-02-01T18:17:48;5.40;99.90
2465;DHT22;1244;54.326;10.074;2023-02-01T18:20:21;5.40;99.90
2465;DHT22;1244;54.326;10.074;2023-02-01T18:22:47;5.40;99.90
2465;DHT22;1244;54.326;10.074;2023-02-01T18:25:18;5.30;99.90
2465;DHT22;1244;54.326;10.074;2023-02-01T18:27:46;5.30;99.90
2465;DHT22;1244;54.326;10.074;2023-02-01T18:30:12;5.30;99.90